Weather at Tampa General Hospital Brandon Healthplex Heliport

Public forecast

Using degrees Fahrenheit for public forecast. Weather courtesy of forecast.io.

Closest aviation weather report (METAR) to Tampa General Hospital Brandon Healthplex Heliport

Closest report is Tampa Executive Airport, 5.1 nm (9.4 km) N. Retrieved 2020/11/30 17:35 UTC (0 seconds ago):

KVDF 301735Z AUTO 31009G17KT 10SM SCT028 BKN035 BKN042 23/16 A2990 RMK AO2

Closest aviation forecast (TAF) to Tampa General Hospital Brandon Healthplex Heliport

Closest forecast is Tampa International Airport, 10.8 nm (19.9 km) WNW. Retrieved 2020/11/30 14:42 UTC (2 hours ago):

TAF KTPA 301439Z 3014/0118 30013G20KT P6SM VCSH BKN015 OVC025 TEMPO 3014/3018 SCT025 BKN050 FM302100 31012G19KT P6SM VCSH BKN035 FM011200 34010G16KT P6SM FEW030